Wednesday, April 01, 2015
05:50 UTC
  |  Log In   |  Register Free
Airport Search:

La Guardia Airport
(KLGA)

FAA data valid effective March 05, 2015 - April 30, 2015 (unless otherwise noted).

 
 
 
 
 
 
 
 
 
 
 
 
 
 

Current Aviation Weather for La Guardia Airport (KLGA)

The most recent METAR observation for KLGA was updated at: 0511
METAR Summary (Translated METAR)
KLGA
010451Z 32009KT 10SM FEW150 SCT210 03/00 A2982 RMK AO2 SLP096 T00280000 400830022
KJFK
010451Z 33008KT 10SM FEW120 BKN200 03/00 A2983 RMK AO2 SLP100 T00280000 400890028
(9.3 nm SE from KLGA)
KTEB
010451Z 34004KT 10SM CLR 02/M01 A2982 RMK AO2 SLP098 T00171006 400830011
(9.6 nm NW from KLGA)
TAF Summary (Translated TAF)
KLGA
010520Z 0106/0206 34012KT P6SM SCT250 FM011400 32012G18KT P6SM SCT040 SCT100 SCT200 FM012300 30007KT P6SM SKC
KJFK
(9.3 nm SE from KLGA)
010520Z 0106/0212 33012KT P6SM SCT250 FM011400 32012G18KT P6SM SCT100 BKN200 FM011900 29012G18KT P6SM SCT040 SCT100 SCT200 FM012300 30007KT P6SM SKC FM020700 VRB04KT P6SM SCT250
  Airport Weather Conditions for KLGA

 Current Weather at LGA
37° F
Partly Cloudy
Northwest winds at 10.4 mph
LGA NOAA Radar

Pressure: 29.82 in
Humidity: 82%
Wind: Northwest at 10.4 MPH (9 KT)
Dew Point: 32.0°F
Visibility: 10.00 mi


Airport Weather Forecast for KLGA

Translated METAR and TAF for KLGA
Translated METAR for KLGA (0549 UTC 01 April 2015)
found at http://aviationweather.gov/adds/metars/
 
METAR text: KLGA 010451Z 32009KT 10SM FEW150 SCT210 03/00 A2982 RMK AO2 SLP096 T00280000 400830022
Conditions at: KLGA (NYC/LA GUARDIA , NY, US) observed 0451 UTC 01 April 2015
Temperature: 2.8°C (37°F)
Dewpoint: 0.0°C (32°F) [RH = 82%]
Pressure (altimeter): 29.82 inches Hg (1009.9 mb)
[Sea-level pressure: 1009.6 mb]
Winds: from the NW (320 degrees) at 10 MPH (9 knots; 4.7 m/s)
Visibility: 10 or more miles (16+ km)
Ceiling: at least 12,000 feet AGL
Clouds: few clouds at 15000 feet AGL
scattered clouds at 21000 feet AGL
Weather: no significant weather observed at this time
Translated TAF for KLGA
Forecast for: KLGA (NYC/LA GUARDIA , NY, US)
TAF Text: KLGA 010520Z 0106/0206 34012KT P6SM SCT250
Forecast period: 0600 to 1400 UTC 01 April 2015
Forecast type: FROM: standard forecast or significant change
Winds: from the NNW (340 degrees) at 14 MPH (12 knots; 6.2 m/s)
Visibility: 6 or more miles (10+ km)
Clouds: scattered clouds at 25000 feet AGL
Weather: no significant weather forecast for this period
TAF Text: FM011400 32012G18KT P6SM SCT040 SCT100 SCT200
Forecast period: 1400 to 2300 UTC 01 April 2015
Forecast type: FROM: standard forecast or significant change
Winds: from the NW (320 degrees) at 14 MPH (12 knots; 6.2 m/s)
gusting to 21 MPH (18 knots; 9.4 m/s)
Visibility: 6 or more miles (10+ km)
Clouds: scattered clouds at 4000 feet AGL
scattered clouds at 10000 feet AGL
scattered clouds at 20000 feet AGL
Weather: no significant weather forecast for this period
TAF Text: FM012300 30007KT P6SM SKC
Forecast period: 2300 UTC 01 April 2015 to 0600 UTC 02 April 2015
Forecast type: FROM: standard forecast or significant change
Winds: from the WNW (300 degrees) at 8 MPH (7 knots; 3.6 m/s)
Visibility: 6 or more miles (10+ km)
Clouds: clear skies
Weather: no significant weather forecast for this period

Find All Airport Services Find A Hotel Find A Rental Car Find A Golf Course Find A Restaurant $100 Hamburger



FBO's on the Field
FBO Company Facility Photos Services Transportation Aviation Fuel Prices: Prices include tax
Catering Weather Repair Courtesy Rental Type 100LL JetA JetA+ MOGAS 8087
 
Sheltair

This FBO has not yet been rated
FS:Avfuel
Last Updated: Mar-24
Login to update fuel prices
SS:
Contact SheltairMore FBO Information
 
Add another FBO Facility Photos Catering Weather Repair Courtesy Rental Type 100LL JetA JetA+ MOGAS 8087
Services Transportation Aviation Fuel Prices: Prices include tax


model-print
model-print
model-print
model-print